Time;durP1;ratioP1;P1;durP2;ratioP2;P2;SDS_P1;SDS_P2;PMS_P1;PMS_P2;Temp;Humidity;BMP_temperature;BMP_pressure;BME280_temperature;BME280_humidity;BME280_pressure;Samples;Min_cycle;Max_cycle;Signal;HPM_P1;HPM_P2
2023/08/02 00:00:13;;;;;;;3.50;1.90;;;;;;;17.82;87.00;97289.81;4120253;28;21819;-81
2023/08/02 00:02:17;;;;;;;2.97;1.70;;;;;;;17.79;86.87;97290.13;4139176;28;20632;-82
2023/08/02 00:04:21;;;;;;;4.40;1.90;;;;;;;17.78;87.43;97296.41;4150813;28;20686;-82
2023/08/02 00:06:24;;;;;;;5.40;2.13;;;;;;;17.73;86.20;97288.19;4137722;28;20648;-81
2023/08/02 00:08:27;;;;;;;3.20;1.53;;;;;;;17.74;86.80;97284.56;4154134;28;20746;-81
2023/08/02 00:10:31;;;;;;;2.67;1.87;;;;;;;17.73;85.95;97279.44;4155036;28;20762;-82
2023/08/02 00:12:35;;;;;;;4.63;2.20;;;;;;;17.75;86.22;97283.53;4123894;28;20672;-81
2023/08/02 00:14:38;;;;;;;5.70;2.10;;;;;;;17.74;85.91;97281.06;4153465;28;20629;-82
2023/08/02 00:16:41;;;;;;;4.10;1.90;;;;;;;17.73;86.59;97282.91;4137921;28;21198;-82
2023/08/02 00:18:45;;;;;;;3.33;1.70;;;;;;;17.69;87.49;97278.13;4153641;28;20684;-81
2023/08/02 00:20:48;;;;;;;5.50;2.03;;;;;;;17.65;86.76;97277.66;4153362;28;21190;-81
2023/08/02 00:22:51;;;;;;;2.60;2.00;;;;;;;17.64;86.58;97281.25;4151474;28;20635;-82
2023/08/02 00:24:53;;;;;;;3.97;1.83;;;;;;;17.60;87.62;97279.94;4153719;28;20739;-80
2023/08/02 00:26:56;;;;;;;3.80;1.80;;;;;;;17.56;87.87;97273.38;4151781;28;21001;-81
2023/08/02 00:29:01;;;;;;;3.10;2.07;;;;;;;17.50;88.13;97268.78;4151681;28;20620;-82
2023/08/02 00:31:04;;;;;;;2.73;1.77;;;;;;;17.48;88.13;97268.13;4123402;28;20692;-80
2023/08/02 00:33:07;;;;;;;2.83;1.90;;;;;;;17.48;87.47;97256.72;4150396;28;20712;-81
2023/08/02 00:35:10;;;;;;;3.13;1.90;;;;;;;17.45;88.21;97257.06;4152572;28;20624;-80
2023/08/02 00:37:14;;;;;;;3.03;2.00;;;;;;;17.39;88.91;97257.72;4153144;28;20991;-82
2023/08/02 00:39:18;;;;;;;2.97;1.97;;;;;;;17.33;88.60;97255.75;4134831;28;21009;-78
2023/08/02 00:41:21;;;;;;;2.43;1.77;;;;;;;17.33;88.56;97252.31;4149411;28;21291;-78
2023/08/02 00:43:24;;;;;;;4.87;2.10;;;;;;;17.33;88.88;97250.47;4135630;28;21428;-82
2023/08/02 00:45:30;;;;;;;4.10;1.80;;;;;;;17.32;88.82;97240.94;4148042;28;20702;-81
2023/08/02 00:47:34;;;;;;;2.33;1.40;;;;;;;17.31;88.36;97238.47;4128265;28;20644;-82
2023/08/02 00:49:37;;;;;;;6.20;2.20;;;;;;;17.30;89.02;97239.47;4114422;28;20665;-81
2023/08/02 00:51:40;;;;;;;2.70;1.70;;;;;;;17.31;89.11;97238.47;4154633;28;20740;-81
2023/08/02 00:53:44;;;;;;;3.80;2.00;;;;;;;17.31;88.89;97238.47;4136929;28;20643;-81
2023/08/02 00:55:47;;;;;;;2.60;1.83;;;;;;;17.25;88.70;97242.59;4141589;28;20995;-78
2023/08/02 00:57:49;;;;;;;3.77;1.93;;;;;;;17.19;90.77;97237.94;4135266;28;20649;-82
2023/08/02 00:59:52;;;;;;;5.10;1.80;;;;;;;17.18;89.19;97230.22;4138918;28;20647;-81
2023/08/02 01:01:57;;;;;;;2.93;1.60;;;;;;;17.19;90.35;97231.88;4157370;28;20637;-82
2023/08/02 01:04:01;;;;;;;5.87;2.10;;;;;;;17.20;89.54;97228.22;4124586;28;21087;-80
2023/08/02 01:06:10;;;;;;;3.00;1.60;;;;;;;17.22;90.19;97226.28;4139311;28;20661;-82
2023/08/02 01:08:19;;;;;;;3.77;1.80;;;;;;;17.24;88.79;97229.56;4144474;28;20763;-81
2023/08/02 01:10:27;;;;;;;3.80;1.83;;;;;;;17.22;88.52;97235.00;4124990;28;20655;-82
2023/08/02 01:12:31;;;;;;;5.43;2.60;;;;;;;17.24;88.48;97234.84;4152463;28;20692;-82
2023/08/02 01:14:35;;;;;;;2.80;2.10;;;;;;;17.18;89.70;97235.47;4142806;28;20646;-82
2023/08/02 01:16:49;;;;;;;4.80;2.00;;;;;;;17.12;90.17;97229.06;4159239;28;20623;-82
2023/08/02 01:18:54;;;;;;;2.43;1.63;;;;;;;17.08;89.80;97224.31;4142972;28;21257;-80
2023/08/02 01:20:58;;;;;;;4.27;2.00;;;;;;;17.01;90.23;97223.31;4158232;28;20731;-82
2023/08/02 01:23:01;;;;;;;3.70;2.20;;;;;;;16.97;91.73;97221.16;4145419;28;21246;-80
2023/08/02 01:25:05;;;;;;;3.40;1.80;;;;;;;16.89;90.84;97213.28;4156048;28;20645;-82
2023/08/02 01:27:12;;;;;;;4.50;2.27;;;;;;;16.87;91.69;97210.81;4142449;28;20631;-82
2023/08/02 01:29:19;;;;;;;2.73;1.80;;;;;;;16.90;92.04;97215.75;4154013;28;20985;-82
2023/08/02 01:31:23;;;;;;;3.17;1.60;;;;;;;16.93;90.86;97214.56;4140992;28;20623;-80
2023/08/02 01:33:27;;;;;;;2.90;1.90;;;;;;;16.91;90.41;97201.56;4138980;28;20678;-80
2023/08/02 01:35:31;;;;;;;4.30;1.90;;;;;;;16.86;90.67;97197.78;4144130;28;20646;-82
2023/08/02 01:37:36;;;;;;;3.27;2.20;;;;;;;16.83;91.02;97191.03;4152295;28;21017;-74
2023/08/02 01:39:39;;;;;;;3.00;1.97;;;;;;;16.80;91.49;97182.66;4141828;28;21216;-74
2023/08/02 01:41:42;;;;;;;3.20;2.10;;;;;;;16.77;92.33;97189.06;4139608;28;20631;-72
2023/08/02 01:43:45;;;;;;;3.17;1.90;;;;;;;16.76;91.64;97197.94;4139363;28;21489;-73
2023/08/02 01:45:48;;;;;;;4.50;1.70;;;;;;;16.72;92.49;97198.47;4123347;28;20671;-75
2023/08/02 01:47:52;;;;;;;2.47;1.80;;;;;;;16.73;92.86;97198.28;4138537;28;20638;-73
2023/08/02 01:49:55;;;;;;;3.73;2.00;;;;;;;16.78;91.70;97195.97;4140212;28;20655;-73
2023/08/02 01:51:58;;;;;;;2.73;1.80;;;;;;;16.85;89.94;97191.69;4141396;28;21605;-73
2023/08/02 01:54:03;;;;;;;2.90;1.80;;;;;;;16.88;90.74;97194.00;4124941;28;20643;-74
2023/08/02 01:56:06;;;;;;;3.00;1.87;;;;;;;16.85;89.81;97190.88;4139542;28;21217;-73
2023/08/02 01:58:09;;;;;;;3.17;2.20;;;;;;;16.77;91.65;97186.44;4138207;28;20643;-75
2023/08/02 02:00:13;;;;;;;3.20;1.83;;;;;;;16.74;91.66;97188.56;4140053;28;21420;-74
2023/08/02 02:02:18;;;;;;;2.90;1.90;;;;;;;16.71;92.29;97194.16;4139631;28;20627;-73
2023/08/02 02:04:21;;;;;;;3.93;2.00;;;;;;;16.68;91.99;97199.75;4151760;28;20677;-74
2023/08/02 02:06:24;;;;;;;3.60;2.10;;;;;;;16.65;93.79;97195.63;4124138;28;20648;-75
2023/08/02 02:08:26;;;;;;;3.27;1.83;;;;;;;16.63;92.26;97197.63;4149667;28;20637;-73
2023/08/02 02:10:31;;;;;;;2.73;2.00;;;;;;;16.61;93.63;97193.50;4146031;28;21272;-74
2023/08/02 02:12:34;;;;;;;2.47;1.87;;;;;;;16.56;93.81;97183.44;4144344;28;20681;-73
2023/08/02 02:14:37;;;;;;;3.90;2.37;;;;;;;16.54;92.40;97181.97;4142269;28;20644;-75
2023/08/02 02:16:40;;;;;;;3.87;2.00;;;;;;;16.49;94.47;97178.19;4140604;28;20622;-73
2023/08/02 02:18:44;;;;;;;4.03;2.00;;;;;;;16.45;94.87;97180.31;4147954;28;20638;-74
2023/08/02 02:20:47;;;;;;;3.70;2.30;;;;;;;16.44;94.81;97175.22;4136515;28;20725;-73
2023/08/02 02:22:50;;;;;;;2.93;2.33;;;;;;;16.43;93.12;97176.19;4124125;28;20755;-74
2023/08/02 02:24:53;;;;;;;4.30;2.50;;;;;;;16.39;94.23;97177.50;4150443;28;21043;-73
2023/08/02 02:26:58;;;;;;;3.30;2.47;;;;;;;16.37;93.10;97174.22;4152425;28;20735;-74
2023/08/02 02:29:01;;;;;;;3.70;2.60;;;;;;;16.35;94.91;97163.03;4134905;28;20667;-72
2023/08/02 02:31:04;;;;;;;4.27;2.37;;;;;;;16.32;95.67;97155.47;4135039;28;20668;-74
2023/08/02 02:33:07;;;;;;;8.70;2.60;;;;;;;16.27;95.57;97148.06;4135146;28;20719;-73
2023/08/02 02:35:12;;;;;;;5.43;2.70;;;;;;;16.25;94.39;97138.66;4152965;28;21069;-74
2023/08/02 02:37:16;;;;;;;3.30;2.40;;;;;;;16.24;94.43;97135.22;4155549;28;20671;-73
2023/08/02 02:39:19;;;;;;;6.43;2.93;;;;;;;16.25;95.23;97133.41;4123625;28;20646;-73
2023/08/02 02:41:22;;;;;;;4.10;2.30;;;;;;;16.24;93.81;97139.66;4141138;28;21177;-73
2023/08/02 02:43:26;;;;;;;3.90;2.53;;;;;;;16.24;94.80;97143.13;4124492;28;20651;-73
2023/08/02 02:45:29;;;;;;;3.87;2.47;;;;;;;16.27;95.81;97142.78;4142531;28;20657;-72
2023/08/02 02:47:32;;;;;;;3.70;2.73;;;;;;;16.30;95.92;97141.66;4138437;28;20639;-75
2023/08/02 02:49:35;;;;;;;3.27;2.30;;;;;;;16.28;94.95;97133.94;4157960;28;20640;-73
2023/08/02 02:51:38;;;;;;;3.63;1.87;;;;;;;16.30;95.97;97137.22;4119725;28;20691;-73
2023/08/02 02:53:41;;;;;;;3.20;2.07;;;;;;;16.33;96.04;97134.25;4119603;28;20644;-74
2023/08/02 02:55:44;;;;;;;3.33;2.30;;;;;;;16.34;94.88;97127.16;4136305;28;21182;-73
2023/08/02 02:57:47;;;;;;;3.97;2.30;;;;;;;16.30;93.78;97120.59;4138418;28;20689;-74
2023/08/02 02:59:51;;;;;;;3.00;2.30;;;;;;;16.27;93.70;97107.78;4156695;28;20665;-73
2023/08/02 03:01:55;;;;;;;5.27;2.40;;;;;;;16.25;95.19;97100.03;4142242;28;20723;-73
2023/08/02 03:03:58;;;;;;;3.90;2.43;;;;;;;16.24;95.77;97105.47;4152249;28;20669;-72
2023/08/02 03:06:01;;;;;;;2.90;2.17;;;;;;;16.21;95.47;97093.41;4137374;28;21360;-72
2023/08/02 03:08:05;;;;;;;3.10;2.00;;;;;;;16.24;95.09;97100.19;4148982;28;20646;-75
2023/08/02 03:10:09;;;;;;;3.53;2.70;;;;;;;16.27;96.04;97099.88;4157163;28;20636;-73
2023/08/02 03:12:12;;;;;;;4.20;2.10;;;;;;;16.27;94.44;97105.13;4154757;28;20680;-74
2023/08/02 03:14:15;;;;;;;4.43;2.37;;;;;;;16.24;95.88;97108.91;4158392;28;20636;-73
2023/08/02 03:16:19;;;;;;;4.10;2.60;;;;;;;16.24;93.94;97106.28;4158288;28;20713;-73
2023/08/02 03:18:22;;;;;;;4.50;2.60;;;;;;;16.25;95.59;97092.16;4153094;28;20735;-73
2023/08/02 03:20:26;;;;;;;5.77;2.63;;;;;;;16.24;94.46;97094.94;4139233;28;20641;-73
2023/08/02 03:22:29;;;;;;;4.37;2.60;;;;;;;16.22;95.64;97096.88;4155469;28;20630;-74
2023/08/02 03:24:32;;;;;;;4.90;2.83;;;;;;;16.22;95.25;97099.53;4152375;28;21065;-73
2023/08/02 03:26:35;;;;;;;4.30;2.60;;;;;;;16.21;95.94;97092.59;4155777;28;20724;-73
2023/08/02 03:28:38;;;;;;;6.70;3.23;;;;;;;16.21;96.06;97095.22;4155700;28;20615;-74
2023/08/02 03:30:41;;;;;;;4.23;2.70;;;;;;;16.18;94.51;97090.28;4154129;28;20627;-74
2023/08/02 03:32:46;;;;;;;4.00;2.87;;;;;;;16.18;96.73;97092.94;4152349;28;20630;-72
2023/08/02 03:34:49;;;;;;;4.50;3.30;;;;;;;16.16;95.39;97092.25;4126526;28;20635;-74
2023/08/02 03:36:52;;;;;;;9.50;3.03;;;;;;;16.16;97.18;97093.09;4134123;28;20637;-75
2023/08/02 03:38:55;;;;;;;5.33;2.97;;;;;;;16.16;95.94;97079.94;4152624;28;20672;-75
2023/08/02 03:40:57;;;;;;;4.63;2.83;;;;;;;16.17;95.48;97081.56;4155143;28;20642;-74
2023/08/02 03:43:00;;;;;;;4.90;3.37;;;;;;;16.16;95.47;97079.09;4153701;28;20683;-74
2023/08/02 03:45:03;;;;;;;5.37;3.60;;;;;;;16.19;96.50;97076.13;4137650;28;20647;-74
2023/08/02 03:47:07;;;;;;;8.03;2.80;;;;;;;16.20;97.79;97072.53;4140339;28;20642;-73
2023/08/02 03:49:11;;;;;;;5.73;3.00;;;;;;;16.21;96.59;97061.84;4153971;28;21246;-73
2023/08/02 03:51:14;;;;;;;6.80;3.50;;;;;;;16.22;98.46;97060.03;4132080;28;20642;-73
2023/08/02 03:53:17;;;;;;;4.03;3.00;;;;;;;16.23;96.78;97059.06;4133383;28;20672;-73
2023/08/02 03:55:20;;;;;;;7.20;2.87;;;;;;;16.24;97.12;97052.84;4152731;28;20631;-73
2023/08/02 03:57:23;;;;;;;4.77;2.90;;;;;;;16.27;98.53;97052.50;4135326;28;20626;-73
2023/08/02 03:59:26;;;;;;;5.00;3.33;;;;;;;16.29;97.64;97053.97;4154242;28;20625;-72
2023/08/02 04:01:29;;;;;;;5.27;3.27;;;;;;;16.31;98.51;97045.91;4154566;28;20656;-74
2023/08/02 04:03:33;;;;;;;7.03;3.20;;;;;;;16.32;98.20;97037.84;4137376;28;20681;-73
2023/08/02 04:05:37;;;;;;;5.10;3.17;;;;;;;16.32;98.31;97039.66;4151206;28;22347;-73
2023/08/02 04:07:39;;;;;;;3.60;2.97;;;;;;;16.31;97.55;97043.28;4121630;28;20689;-74
2023/08/02 04:09:42;;;;;;;3.90;2.90;;;;;;;16.31;98.81;97043.28;4152269;28;20622;-73
2023/08/02 04:11:45;;;;;;;3.87;2.70;;;;;;;16.32;97.21;97037.84;4140243;28;20675;-73
2023/08/02 04:13:50;;;;;;;4.73;3.20;;;;;;;16.33;97.14;97038.69;4154521;28;20642;-73
2023/08/02 04:15:53;;;;;;;4.03;2.30;;;;;;;16.37;98.34;97042.63;4137702;28;20632;-73
2023/08/02 04:17:56;;;;;;;4.00;2.53;;;;;;;16.44;98.78;97040.97;4137140;28;20736;-74
2023/08/02 04:20:00;;;;;;;4.77;2.50;;;;;;;16.50;97.53;97035.84;4125904;28;20652;-73
2023/08/02 04:22:04;;;;;;;4.83;2.00;;;;;;;16.57;96.98;97035.03;4139349;28;20626;-73
2023/08/02 04:24:07;;;;;;;3.33;2.33;;;;;;;16.64;95.20;97036.00;4141307;28;20642;-75
2023/08/02 04:26:11;;;;;;;4.00;2.27;;;;;;;16.72;96.13;97024.66;4137991;28;20726;-73
2023/08/02 04:28:14;;;;;;;4.57;2.43;;;;;;;16.80;95.75;97019.34;4134071;28;20621;-73
2023/08/02 04:30:17;;;;;;;3.90;2.47;;;;;;;16.86;93.82;97016.03;4155783;28;20609;-73
2023/08/02 04:32:20;;;;;;;2.73;2.07;;;;;;;16.94;94.28;97008.91;4136963;28;20651;-73
2023/08/02 04:34:23;;;;;;;3.80;1.90;;;;;;;17.00;93.22;97006.44;4156541;28;20635;-73
2023/08/02 04:36:26;;;;;;;2.80;2.07;;;;;;;17.06;94.31;97004.91;4115338;28;20660;-74
2023/08/02 04:38:31;;;;;;;3.10;1.87;;;;;;;17.12;92.72;96998.97;4148745;28;21166;-73
2023/08/02 04:40:38;;;;;;;4.67;2.37;;;;;;;17.19;93.47;96999.94;4139665;28;20702;-74
2023/08/02 04:42:41;;;;;;;2.60;1.77;;;;;;;17.24;93.01;97003.72;4145602;28;20719;-73
2023/08/02 04:44:44;;;;;;;3.50;2.10;;;;;;;17.30;93.13;96986.41;4155289;28;20760;-75
2023/08/02 04:46:47;;;;;;;3.17;1.97;;;;;;;17.32;92.18;96981.75;4152836;28;20645;-73
2023/08/02 04:48:50;;;;;;;2.50;1.60;;;;;;;17.37;91.84;96971.53;4156936;28;21177;-74
2023/08/02 04:50:54;;;;;;;3.20;2.20;;;;;;;17.41;91.28;96983.38;4143853;28;20694;-73
2023/08/02 04:53:01;;;;;;;2.00;1.53;;;;;;;17.45;90.59;96979.41;4136235;28;20658;-73
2023/08/02 04:55:07;;;;;;;3.27;1.47;;;;;;;17.48;91.55;96972.78;4141569;28;20719;-75
2023/08/02 04:57:10;;;;;;;3.57;2.20;;;;;;;17.53;90.78;96983.63;4158136;28;20682;-74
2023/08/02 04:59:14;;;;;;;4.50;1.80;;;;;;;17.59;90.52;96987.38;4143164;28;20780;-73
2023/08/02 05:01:17;;;;;;;3.93;1.97;;;;;;;17.62;89.97;96985.22;4142159;28;20686;-75
2023/08/02 05:03:19;;;;;;;5.93;2.23;;;;;;;17.65;90.25;96992.78;4155908;28;20639;-73
2023/08/02 05:05:24;;;;;;;4.60;1.63;;;;;;;17.66;89.99;96989.13;4142974;28;20701;-73
2023/08/02 05:07:28;;;;;;;3.60;1.80;;;;;;;17.69;90.74;96988.78;4151800;28;20714;-74
2023/08/02 05:09:31;;;;;;;2.77;1.80;;;;;;;17.71;90.86;96986.81;4137488;28;20635;-75
2023/08/02 05:11:37;;;;;;;2.30;1.70;;;;;;;17.72;90.53;96975.25;4155854;28;20642;-73
2023/08/02 05:13:41;;;;;;;3.53;1.90;;;;;;;17.74;90.54;96978.56;4156600;28;20725;-73
2023/08/02 05:15:44;;;;;;;2.87;1.90;;;;;;;17.76;91.21;96978.38;4156104;28;20643;-74
2023/08/02 05:17:47;;;;;;;2.17;1.40;;;;;;;17.78;90.41;96985.09;4157991;28;20635;-73
2023/08/02 05:19:50;;;;;;;4.23;1.80;;;;;;;17.80;91.01;96990.19;4156736;28;20689;-73
2023/08/02 05:21:53;;;;;;;2.73;1.80;;;;;;;17.82;91.11;96988.22;4156679;28;20643;-74
2023/08/02 05:23:56;;;;;;;3.37;2.00;;;;;;;17.81;91.45;96981.28;4153668;28;21277;-73
2023/08/02 05:26:04;;;;;;;3.13;2.00;;;;;;;17.81;91.16;96982.09;4159682;28;20631;-73
2023/08/02 05:28:08;;;;;;;2.73;1.90;;;;;;;17.83;91.63;96982.78;4136561;28;20670;-72
2023/08/02 05:30:12;;;;;;;3.80;1.60;;;;;;;17.86;92.46;96981.56;4156471;28;20664;-75
2023/08/02 05:32:15;;;;;;;4.47;2.20;;;;;;;17.89;92.30;96984.72;4156740;28;20682;-73
2023/08/02 05:34:18;;;;;;;3.03;1.77;;;;;;;17.89;92.12;96979.44;4138941;28;21215;-74
2023/08/02 05:36:21;;;;;;;2.80;1.73;;;;;;;17.92;93.48;96985.16;4163561;28;20650;-73
2023/08/02 05:38:24;;;;;;;3.83;2.40;;;;;;;17.93;92.89;96984.16;4156675;28;20642;-74
2023/08/02 05:40:27;;;;;;;3.07;1.80;;;;;;;17.96;93.27;96986.44;4146700;28;20719;-76
2023/08/02 05:42:30;;;;;;;2.90;1.87;;;;;;;17.96;93.86;96983.00;4149538;28;20627;-74
2023/08/02 05:44:36;;;;;;;2.90;2.00;;;;;;;17.94;93.43;96982.34;4137950;28;21203;-74
2023/08/02 05:46:39;;;;;;;3.70;2.00;;;;;;;17.93;94.01;96980.69;4125430;28;20663;-73
2023/08/02 05:48:43;;;;;;;4.50;2.00;;;;;;;17.93;93.32;96981.50;4143827;28;21265;-74
2023/08/02 05:50:45;;;;;;;2.83;1.93;;;;;;;17.92;93.27;96968.53;4153245;28;21193;-74
2023/08/02 05:52:48;;;;;;;3.87;2.00;;;;;;;17.90;93.89;96972.31;4155462;28;20658;-75
2023/08/02 05:54:51;;;;;;;2.67;1.93;;;;;;;17.90;93.78;96973.13;4154349;28;20679;-73
2023/08/02 05:56:54;;;;;;;3.23;2.00;;;;;;;17.89;93.69;96974.16;4133856;28;20638;-74
2023/08/02 05:58:57;;;;;;;4.30;2.20;;;;;;;17.89;93.73;96968.03;4157295;28;20660;-74
2023/08/02 06:01:02;;;;;;;4.83;2.10;;;;;;;17.89;94.25;96968.88;4158715;28;21321;-75
2023/08/02 06:03:09;;;;;;;3.93;2.00;;;;;;;17.91;94.55;96968.69;4155161;28;20744;-75
2023/08/02 06:05:13;;;;;;;4.37;2.20;;;;;;;17.93;95.08;96954.31;4157358;28;20654;-74
2023/08/02 06:07:16;;;;;;;5.40;2.60;;;;;;;17.90;95.54;96965.22;4160431;28;20630;-74
2023/08/02 06:09:22;;;;;;;3.77;2.40;;;;;;;17.91;95.80;96966.06;4157422;28;20631;-74
2023/08/02 06:11:24;;;;;;;4.17;2.50;;;;;;;17.89;95.74;96963.59;4155742;28;21518;-75
2023/08/02 06:13:27;;;;;;;5.30;3.00;;;;;;;17.91;95.97;96961.59;4153887;28;20767;-74
2023/08/02 06:15:30;;;;;;;2.90;2.13;;;;;;;17.92;96.61;96961.41;4141234;28;20636;-73
2023/08/02 06:17:35;;;;;;;3.70;2.20;;;;;;;17.91;96.44;96961.59;4162655;28;20639;-74
2023/08/02 06:19:39;;;;;;;3.77;2.07;;;;;;;17.88;96.72;96948.75;4135993;28;20738;-74
2023/08/02 06:21:42;;;;;;;2.40;1.60;;;;;;;17.88;96.61;96945.31;4158769;28;20648;-74
2023/08/02 06:23:45;;;;;;;4.80;2.40;;;;;;;17.87;97.56;96943.66;4142723;28;20676;-75
2023/08/02 06:25:49;;;;;;;3.03;2.17;;;;;;;17.88;97.81;96951.41;4139104;28;21207;-73
2023/08/02 06:27:52;;;;;;;3.57;2.40;;;;;;;17.91;97.79;96952.88;4137989;28;21192;-75
2023/08/02 06:29:55;;;;;;;3.07;2.17;;;;;;;17.92;98.23;96955.34;4157787;28;20727;-73
2023/08/02 06:31:58;;;;;;;4.10;2.60;;;;;;;17.97;98.90;96955.63;4144117;28;20627;-74
2023/08/02 06:34:02;;;;;;;3.70;2.10;;;;;;;17.98;98.26;96958.06;4157027;28;20663;-73
2023/08/02 06:36:06;;;;;;;3.07;2.07;;;;;;;17.98;98.24;96963.34;4154324;28;20699;-74
2023/08/02 06:38:09;;;;;;;3.67;1.90;;;;;;;17.97;98.56;96956.41;4144956;28;20616;-73
2023/08/02 06:40:12;;;;;;;3.77;2.17;;;;;;;17.98;98.71;96957.22;4144284;28;20628;-73
2023/08/02 06:42:14;;;;;;;3.53;2.27;;;;;;;18.00;98.61;96960.53;4144610;28;20630;-74
2023/08/02 06:44:18;;;;;;;3.70;2.40;;;;;;;17.99;98.29;96961.53;4142994;28;20626;-73
2023/08/02 06:46:21;;;;;;;3.50;2.10;;;;;;;18.00;98.19;96947.34;4154295;28;20732;-73
2023/08/02 06:48:25;;;;;;;4.63;2.40;;;;;;;18.00;98.30;96934.16;4119332;28;20665;-75
2023/08/02 06:50:30;;;;;;;3.43;2.17;;;;;;;17.99;98.20;96933.31;4154441;28;20644;-74
2023/08/02 06:52:33;;;;;;;3.60;2.60;;;;;;;17.97;98.59;96921.31;4136125;28;20684;-74
2023/08/02 06:54:36;;;;;;;3.23;2.47;;;;;;;17.95;98.77;96921.47;4154946;28;21063;-74
2023/08/02 06:56:39;;;;;;;6.43;2.53;;;;;;;17.91;99.13;96908.00;4139125;28;20755;-73
2023/08/02 06:58:43;;;;;;;3.60;2.53;;;;;;;17.87;99.26;96904.06;4152503;28;21224;-75
2023/08/02 07:00:46;;;;;;;4.70;3.20;;;;;;;17.87;99.47;96901.44;4154562;28;20619;-73
2023/08/02 07:02:49;;;;;;;4.20;2.67;;;;;;;17.90;99.58;96904.53;4138361;28;20647;-73
2023/08/02 07:04:52;;;;;;;3.57;2.37;;;;;;;17.96;100.00;96890.63;4145339;28;20676;-73
2023/08/02 07:06:57;;;;;;;5.13;3.07;;;;;;;17.99;100.00;96893.72;4156746;28;21186;-73
2023/08/02 07:09:00;;;;;;;4.30;2.87;;;;;;;18.02;99.55;96887.28;4152783;28;20993;-73
2023/08/02 07:11:04;;;;;;;4.00;2.70;;;;;;;18.06;99.47;96880.66;4150695;28;20698;-75
2023/08/02 07:13:07;;;;;;;5.13;2.90;;;;;;;18.08;99.92;96883.91;4158217;28;20678;-74
2023/08/02 07:15:10;;;;;;;7.03;3.27;;;;;;;18.08;98.81;96886.56;4145998;28;21042;-75
2023/08/02 07:17:14;;;;;;;3.93;2.93;;;;;;;18.14;99.86;96888.50;4145954;28;20649;-73
2023/08/02 07:19:17;;;;;;;6.17;3.57;;;;;;;18.11;99.75;96887.00;4154157;28;20612;-73
2023/08/02 07:21:20;;;;;;;3.90;3.00;;;;;;;18.12;100.00;96878.09;4152138;28;20633;-74
2023/08/02 07:23:24;;;;;;;4.53;3.10;;;;;;;18.10;100.00;96881.91;4137299;28;21218;-74
2023/08/02 07:25:27;;;;;;;4.43;3.37;;;;;;;18.10;100.00;96866.91;4138451;28;20646;-74
2023/08/02 07:27:30;;;;;;;5.30;3.63;;;;;;;18.10;100.00;96879.28;4148369;28;20624;-82
2023/08/02 07:29:33;;;;;;;4.50;3.47;;;;;;;18.12;100.00;96866.72;4151072;28;21010;-81
2023/08/02 07:31:37;;;;;;;4.43;3.23;;;;;;;18.15;100.00;96856.66;4138845;28;20715;-83
2023/08/02 07:33:40;;;;;;;4.77;3.40;;;;;;;18.16;100.00;96852.19;4138472;28;20656;-81
2023/08/02 07:35:46;;;;;;;5.80;3.67;;;;;;;18.21;100.00;96855.94;4151190;28;21059;-81
2023/08/02 07:37:49;;;;;;;5.47;3.90;;;;;;;18.25;100.00;96854.56;4148283;28;21523;-81
2023/08/02 07:39:53;;;;;;;4.50;3.37;;;;;;;18.27;100.00;96849.13;4141274;28;20637;-78
2023/08/02 07:41:56;;;;;;;5.50;3.77;;;;;;;18.31;100.00;96853.00;4146378;28;20637;-81
2023/08/02 07:43:59;;;;;;;6.33;3.73;;;;;;;18.34;100.00;96852.66;4131170;28;20647;-81
2023/08/02 07:46:02;;;;;;;4.70;3.70;;;;;;;18.35;100.00;96851.66;4153932;28;20620;-79
2023/08/02 07:48:05;;;;;;;4.50;3.30;;;;;;;18.37;100.00;96850.44;4151258;28;21277;-82
2023/08/02 07:50:09;;;;;;;5.23;3.70;;;;;;;18.39;99.79;96847.63;4151134;28;20660;-81
2023/08/02 07:52:12;;;;;;;4.83;3.87;;;;;;;18.41;99.90;96839.34;4140321;28;21193;-80
2023/08/02 07:54:16;;;;;;;6.90;4.17;;;;;;;18.43;100.00;96836.53;4150347;28;20664;-82
2023/08/02 07:56:20;;;;;;;5.87;3.77;;;;;;;18.47;100.00;96843.91;4150189;28;21197;-81
2023/08/02 07:58:23;;;;;;;5.80;4.17;;;;;;;18.51;100.00;96831.97;4147118;28;20631;-82
2023/08/02 08:00:26;;;;;;;4.93;3.60;;;;;;;18.48;100.00;96829.69;4150316;28;20657;-81
2023/08/02 08:02:29;;;;;;;4.93;3.10;;;;;;;18.47;100.00;96822.75;4150303;28;20739;-81
2023/08/02 08:04:33;;;;;;;5.93;4.30;;;;;;;18.48;100.00;96824.41;4128704;28;20791;-77
2023/08/02 08:06:36;;;;;;;4.93;3.67;;;;;;;18.52;100.00;96823.06;4145891;28;20655;-79
2023/08/02 08:08:39;;;;;;;4.97;3.83;;;;;;;18.56;100.00;96816.38;4127746;28;20636;-82
2023/08/02 08:10:42;;;;;;;8.60;4.90;;;;;;;18.60;100.00;96817.66;4150991;28;20631;-83
2023/08/02 08:12:47;;;;;;;5.77;3.87;;;;;;;18.67;100.00;96817.72;4158549;28;20631;-81
2023/08/02 08:14:50;;;;;;;6.20;4.10;;;;;;;18.72;100.00;96825.91;4155054;28;20993;-83
2023/08/02 08:16:53;;;;;;;5.27;3.60;;;;;;;18.77;100.00;96815.63;4135847;28;20644;-79
2023/08/02 08:18:56;;;;;;;6.20;4.03;;;;;;;18.76;100.00;96806.06;4156683;28;20729;-83
2023/08/02 08:21:01;;;;;;;4.90;3.40;;;;;;;18.72;100.00;96804.78;4152503;28;21265;-82
2023/08/02 08:23:04;;;;;;;5.03;3.87;;;;;;;18.70;100.00;96802.34;4153432;28;20638;-82
2023/08/02 08:25:08;;;;;;;6.73;3.80;;;;;;;18.65;100.00;96791.50;4157963;28;21363;-79
2023/08/02 08:27:11;;;;;;;5.53;4.03;;;;;;;18.67;100.00;96801.88;4141729;28;20635;-82
2023/08/02 08:29:15;;;;;;;5.93;3.80;;;;;;;18.65;100.00;96798.63;4154475;28;20646;-81
2023/08/02 08:31:19;;;;;;;5.43;3.57;;;;;;;18.67;100.00;96793.94;4137011;28;20646;-78
2023/08/02 08:33:22;;;;;;;4.47;3.63;;;;;;;18.66;100.00;96785.22;4153434;28;20644;-81
2023/08/02 08:35:25;;;;;;;5.07;3.93;;;;;;;18.69;100.00;96794.59;4150901;28;21305;-82
2023/08/02 08:37:28;;;;;;;5.43;3.57;;;;;;;18.69;100.00;96794.59;4154956;28;20638;-75
2023/08/02 08:39:31;;;;;;;6.50;4.27;;;;;;;18.70;100.00;96789.13;4154164;28;20730;-73
2023/08/02 08:41:34;;;;;;;5.97;3.30;;;;;;;18.71;100.00;96780.19;4136699;28;20645;-73
2023/08/02 08:43:37;;;;;;;7.67;3.70;;;;;;;18.76;100.00;96782.28;4132712;28;20738;-73
2023/08/02 08:45:42;;;;;;;5.30;3.70;;;;;;;18.74;100.00;96782.47;4126674;28;20621;-73
2023/08/02 08:47:45;;;;;;;5.00;3.53;;;;;;;18.76;100.00;96771.69;4156044;28;21288;-74
2023/08/02 08:49:48;;;;;;;5.50;3.60;;;;;;;18.81;100.00;96772.78;4157071;28;20638;-74
2023/08/02 08:51:53;;;;;;;8.97;3.90;;;;;;;18.80;100.00;96760.56;4141352;28;21235;-74
2023/08/02 08:53:57;;;;;;;10.10;7.77;;;;;;;18.81;100.00;96758.75;4135684;28;20636;-74
2023/08/02 08:56:01;;;;;;;14.10;9.70;;;;;;;18.86;100.00;96766.94;4153811;28;21503;-73
2023/08/02 08:58:04;;;;;;;5.13;3.90;;;;;;;18.86;100.00;96761.66;4152943;28;20624;-73
2023/08/02 09:00:14;;;;;;;4.83;3.60;;;;;;;18.82;100.00;96752.47;4155130;28;20633;-74
2023/08/02 09:02:19;;;;;;;6.10;3.90;;;;;;;18.77;100.00;96754.84;4141061;28;20712;-73
2023/08/02 09:04:22;;;;;;;6.00;3.33;;;;;;;18.75;100.00;96756.84;4139685;28;21122;-73
2023/08/02 09:06:27;;;;;;;5.17;3.77;;;;;;;18.77;100.00;96747.75;4133825;28;20653;-73
2023/08/02 09:08:30;;;;;;;4.83;3.67;;;;;;;18.78;100.00;96754.66;4139663;28;21267;-73
2023/08/02 09:10:34;;;;;;;4.23;3.27;;;;;;;18.75;100.00;96765.63;4154806;28;20635;-73
2023/08/02 09:12:44;;;;;;;6.87;5.57;;;;;;;18.72;100.00;96754.56;4139247;28;20641;-74
2023/08/02 09:14:59;;;;;;;6.50;4.17;;;;;;;18.75;100.00;96741.84;4151695;28;20705;-74
2023/08/02 09:17:03;;;;;;;4.40;3.20;;;;;;;18.77;100.00;96755.66;4142624;28;20709;-74
2023/08/02 09:19:21;;;;;;;5.30;3.67;;;;;;;18.77;100.00;96765.44;4143364;28;20683;-73
2023/08/02 09:21:26;;;;;;;5.03;3.33;;;;;;;18.72;100.00;96762.50;4157237;28;20722;-75
2023/08/02 09:23:29;;;;;;;5.27;3.77;;;;;;;18.74;100.00;96757.88;4154380;28;20697;-73
2023/08/02 09:25:32;;;;;;;4.73;3.67;;;;;;;18.79;100.00;96752.84;4120722;28;20638;-73
2023/08/02 09:27:35;;;;;;;6.10;3.60;;;;;;;18.80;100.00;96750.00;4157427;28;20622;-73
2023/08/02 09:29:49;;;;;;;5.20;3.37;;;;;;;18.87;100.00;96758.00;4156598;28;20769;-73
2023/08/02 09:31:53;;;;;;;4.53;3.40;;;;;;;18.87;100.00;96745.63;4154249;28;20697;-75
2023/08/02 09:33:57;;;;;;;4.20;3.10;;;;;;;18.88;100.00;96748.06;4152564;28;20643;-73
2023/08/02 09:36:01;;;;;;;5.97;3.43;;;;;;;18.92;100.00;96743.22;4158101;28;20678;-74
2023/08/02 09:38:10;;;;;;;3.90;3.23;;;;;;;18.95;100.00;96729.63;4140595;28;21032;-75
2023/08/02 09:40:13;;;;;;;4.77;3.00;;;;;;;19.00;100.00;96735.16;4141130;28;20632;-75